Time;durP1;ratioP1;P1;durP2;ratioP2;P2;SDS_P1;SDS_P2;PMS_P1;PMS_P2;Temp;Humidity;BMP_temperature;BMP_pressure;BME280_temperature;BME280_humidity;BME280_pressure;Samples;Min_cycle;Max_cycle;Signal;HPM_P1;HPM_P2
2022/10/08 00:01:08;;;;;;;10.98;2.53;;;12.50;99.90;;;;;;5069595;28;20401;-52
2022/10/08 00:03:36;;;;;;;8.75;1.85;;;12.50;99.90;;;;;;5058658;28;20045;-53
2022/10/08 00:06:05;;;;;;;10.95;2.53;;;12.50;99.90;;;;;;5049686;28;20037;-54
2022/10/08 00:08:34;;;;;;;12.35;2.55;;;12.50;99.90;;;;;;5058318;28;20036;-55
2022/10/08 00:11:03;;;;;;;13.05;2.10;;;12.60;99.90;;;;;;5069709;28;20040;-55
2022/10/08 00:13:39;;;;;;;14.38;2.95;;;12.60;99.90;;;;;;5060819;28;20036;-53
2022/10/08 00:16:11;;;;;;;7.90;2.20;;;12.60;99.90;;;;;;5064170;28;20402;-52
2022/10/08 00:18:38;;;;;;;8.02;2.30;;;12.60;99.90;;;;;;5060699;28;20040;-51
2022/10/08 00:21:15;;;;;;;7.85;1.50;;;12.70;99.90;;;;;;5050370;28;20044;-53
2022/10/08 00:23:45;;;;;;;11.95;2.10;;;12.70;99.90;;;;;;5061030;28;20037;-51
2022/10/08 00:26:12;;;;;;;9.98;1.60;;;12.70;99.90;;;;;;5060384;28;20041;-53
2022/10/08 00:28:41;;;;;;;8.63;2.15;;;12.70;99.90;;;;;;5059932;28;20033;-51
2022/10/08 00:31:10;;;;;;;16.48;2.50;;;12.80;99.90;;;;;;5070585;28;20044;-53
2022/10/08 00:33:37;;;;;;;10.32;2.83;;;12.70;99.90;;;;;;5065829;28;20037;-51
2022/10/08 00:36:04;;;;;;;12.52;2.13;;;12.70;99.90;;;;;;5052950;28;20052;-56
2022/10/08 00:38:30;;;;;;;9.85;2.95;;;12.70;99.90;;;;;;5057453;28;20044;-52
2022/10/08 00:40:56;;;;;;;14.10;2.55;;;12.60;99.90;;;;;;5072985;28;20040;-51
2022/10/08 00:43:43;;;;;;;8.98;2.05;;;12.60;99.90;;;;;;5062262;28;20420;-50
2022/10/08 00:46:40;;;;;;;6.83;2.20;;;12.50;99.90;;;;;;5056822;28;20036;-52
2022/10/08 00:49:15;;;;;;;9.65;2.05;;;12.50;99.90;;;;;;5064296;28;20299;-49
2022/10/08 00:51:49;;;;;;;9.85;2.13;;;12.40;99.90;;;;;;5052159;28;20044;-52
2022/10/08 00:54:17;;;;;;;13.23;2.50;;;12.40;99.90;;;;;;5053296;28;20041;-51
2022/10/08 00:56:43;;;;;;;7.25;2.08;;;12.30;99.90;;;;;;5051526;28;20047;-51
2022/10/08 00:59:11;;;;;;;10.35;2.45;;;12.30;99.90;;;;;;5059062;28;20439;-54
2022/10/08 01:01:40;;;;;;;14.77;3.88;;;12.30;99.90;;;;;;5072311;28;20045;-52
2022/10/08 01:04:06;;;;;;;17.10;3.15;;;12.20;99.90;;;;;;5069680;28;20058;-55
2022/10/08 01:06:41;;;;;;;;;;;12.20;99.90;;;;;;5071811;28;20489;-53
2022/10/08 01:09:19;;;;;;;13.45;3.00;;;12.20;99.90;;;;;;5057483;28;19916;-53
2022/10/08 01:12:29;;;;;;;10.70;2.80;;;12.20;99.90;;;;;;5053201;28;20033;-49
2022/10/08 01:14:59;;;;;;;17.60;4.07;;;12.20;99.90;;;;;;5036538;28;20572;-51
2022/10/08 01:17:48;;;;;;;11.90;3.63;;;12.20;99.90;;;;;;5051989;28;20037;-52
2022/10/08 01:20:26;;;;;;;12.75;3.03;;;12.20;99.90;;;;;;5058773;28;20041;-52
2022/10/08 01:23:05;;;;;;;15.68;3.47;;;12.20;99.90;;;;;;5051585;28;20049;-51
2022/10/08 01:25:57;;;;;;;9.10;2.78;;;12.20;99.90;;;;;;5064868;28;20036;-52
2022/10/08 01:28:28;;;;;;;7.50;3.40;;;12.20;99.90;;;;;;5061557;28;20081;-51
2022/10/08 01:31:01;;;;;;;9.43;3.67;;;12.20;99.90;;;;;;5054421;28;20033;-51
2022/10/08 01:33:41;;;;;;;13.63;3.30;;;12.20;99.90;;;;;;5064270;28;20039;-56
2022/10/08 01:36:10;;;;;;;9.45;3.03;;;12.20;99.90;;;;;;5053230;28;20037;-55
2022/10/08 01:38:40;;;;;;;12.35;4.10;;;12.20;99.90;;;;;;5052016;28;20746;-53
2022/10/08 01:41:08;;;;;;;17.52;3.78;;;12.20;99.90;;;;;;5068998;28;20040;-53
2022/10/08 01:43:38;;;;;;;9.30;4.43;;;12.20;99.90;;;;;;5069098;28;20048;-55
2022/10/08 01:46:16;;;;;;;16.60;4.97;;;12.20;99.90;;;;;;5054674;28;20075;-51
2022/10/08 01:48:43;;;;;;;15.27;6.05;;;12.20;99.90;;;;;;5056936;28;20040;-50
2022/10/08 01:51:19;;;;;;;10.35;3.60;;;12.20;99.90;;;;;;5053989;28;20048;-53
2022/10/08 01:53:48;;;;;;;12.18;3.15;;;12.10;99.90;;;;;;5067475;28;20095;-54
2022/10/08 01:56:18;;;;;;;12.40;3.97;;;12.20;99.90;;;;;;5067050;28;20044;-56
2022/10/08 01:58:53;;;;;;;13.25;3.92;;;12.10;99.90;;;;;;5069062;28;20083;-51
2022/10/08 02:01:43;;;;;;;7.82;2.58;;;12.10;99.90;;;;;;5054466;28;20046;-53
2022/10/08 02:06:58;;;;;;;11.63;3.08;;;12.10;99.90;;;;;;5058118;28;20393;-51
2022/10/08 02:09:25;;;;;;;10.65;2.90;;;12.10;99.90;;;;;;5060456;28;20512;-54
2022/10/08 02:11:51;;;;;;;11.88;2.92;;;12.10;99.90;;;;;;5085596;28;20044;-52
2022/10/08 02:14:18;;;;;;;9.95;2.78;;;12.00;99.90;;;;;;5069640;28;20032;-54
2022/10/08 02:16:51;;;;;;;6.25;1.95;;;12.00;99.90;;;;;;5052283;28;20552;-51
2022/10/08 02:19:34;;;;;;;7.63;2.78;;;12.00;99.90;;;;;;5051679;28;20551;-53
2022/10/08 02:22:02;;;;;;;9.43;3.45;;;12.00;99.90;;;;;;5051123;28;20052;-53
2022/10/08 02:24:36;;;;;;;11.10;2.65;;;12.00;99.90;;;;;;5050320;28;20052;-54
2022/10/08 02:27:06;;;;;;;7.38;2.67;;;11.90;99.90;;;;;;5050885;28;20494;-53
2022/10/08 02:29:40;;;;;;;13.82;4.32;;;12.00;99.90;;;;;;5064544;28;20049;-52
2022/10/08 02:32:13;;;;;;;13.40;3.78;;;12.00;99.90;;;;;;5051216;28;20045;-52
2022/10/08 02:34:49;;;;;;;7.70;4.10;;;12.00;99.90;;;;;;5050468;28;20490;-52
2022/10/08 02:37:18;;;;;;;10.23;3.13;;;12.00;99.90;;;;;;5050865;28;20072;-50
2022/10/08 02:39:49;;;;;;;15.07;4.20;;;12.00;99.90;;;;;;5050051;28;20052;-54
2022/10/08 02:42:20;;;;;;;10.63;3.55;;;12.00;99.90;;;;;;5065775;28;20055;-53
2022/10/08 02:45:10;;;;;;;7.10;3.40;;;12.00;99.90;;;;;;5068845;28;20067;-54
2022/10/08 02:47:39;;;;;;;14.25;3.65;;;12.00;99.90;;;;;;5050345;28;20056;-53
2022/10/08 02:50:11;;;;;;;15.68;3.35;;;12.00;99.90;;;;;;5051304;28;20068;-54
2022/10/08 02:52:40;;;;;;;10.25;3.08;;;11.90;99.90;;;;;;5069478;28;20071;-52
2022/10/08 02:55:17;;;;;;;7.28;3.42;;;11.90;99.90;;;;;;5070137;28;20167;-51
2022/10/08 02:57:47;;;;;;;10.30;3.65;;;12.00;99.90;;;;;;5050336;28;20048;-49
2022/10/08 03:00:13;;;;;;;12.52;2.80;;;12.00;99.90;;;;;;5050207;28;20072;-53
2022/10/08 03:02:45;;;;;;;10.05;3.42;;;12.00;99.90;;;;;;5053689;28;20077;-53
2022/10/08 03:05:16;;;;;;;10.55;3.28;;;12.00;99.90;;;;;;5048743;28;20055;-52
2022/10/08 03:07:43;;;;;;;11.35;3.15;;;11.90;99.90;;;;;;5051300;28;20044;-54
2022/10/08 03:10:10;;;;;;;7.15;2.58;;;11.90;99.90;;;;;;5050221;28;20047;-53
2022/10/08 03:12:36;;;;;;;7.47;2.38;;;12.00;99.90;;;;;;5065913;28;20691;-52
2022/10/08 03:15:02;;;;;;;5.68;1.45;;;11.90;99.90;;;;;;5069818;28;20033;-53
2022/10/08 03:17:32;;;;;;;9.10;2.72;;;12.00;99.90;;;;;;5068031;28;20513;-56
2022/10/08 03:20:02;;;;;;;4.20;1.20;;;11.90;99.90;;;;;;5070210;28;20111;-54
2022/10/08 03:22:29;;;;;;;7.05;1.65;;;12.00;99.90;;;;;;5060265;28;20036;-53
2022/10/08 03:24:54;;;;;;;10.43;2.60;;;12.00;99.90;;;;;;5069621;28;20151;-51
2022/10/08 03:27:20;;;;;;;11.07;1.60;;;12.00;99.90;;;;;;5067846;28;20124;-52
2022/10/08 03:29:45;;;;;;;12.03;2.27;;;12.10;99.90;;;;;;5070083;28;20029;-52
2022/10/08 03:32:11;;;;;;;4.77;1.83;;;12.00;99.90;;;;;;5059495;28;20102;-52
2022/10/08 03:34:36;;;;;;;5.20;1.47;;;12.00;99.90;;;;;;5066723;28;20282;-52
2022/10/08 03:37:02;;;;;;;7.47;3.00;;;12.00;99.90;;;;;;5061622;28;20397;-53
2022/10/08 03:39:27;;;;;;;7.07;1.88;;;12.00;99.90;;;;;;5049715;28;20103;-56
2022/10/08 03:41:53;;;;;;;8.00;2.60;;;11.90;99.90;;;;;;5057013;28;20048;-54
2022/10/08 03:44:18;;;;;;;5.57;1.60;;;12.00;99.90;;;;;;5069148;28;20290;-52
2022/10/08 03:46:44;;;;;;;7.10;2.90;;;11.90;99.90;;;;;;5067198;28;20458;-52
2022/10/08 03:49:09;;;;;;;7.90;2.63;;;11.90;99.90;;;;;;5051106;28;20115;-51
2022/10/08 03:51:35;;;;;;;8.40;2.20;;;11.90;99.90;;;;;;5052994;28;20112;-52
2022/10/08 03:54:01;;;;;;;6.93;3.10;;;11.90;99.90;;;;;;5068280;28;20033;-52
2022/10/08 03:56:26;;;;;;;10.03;2.73;;;11.90;99.90;;;;;;5071161;28;20279;-55
2022/10/08 03:58:54;;;;;;;5.97;2.47;;;11.80;99.90;;;;;;5064401;28;20554;-52
2022/10/08 04:01:20;;;;;;;5.43;2.83;;;11.80;99.90;;;;;;5072751;28;20060;-54
2022/10/08 04:03:45;;;;;;;10.70;3.72;;;11.80;99.90;;;;;;5053442;28;20088;-51
2022/10/08 04:06:11;;;;;;;6.20;2.90;;;11.80;99.90;;;;;;5052223;28;20508;-53
2022/10/08 04:08:37;;;;;;;11.60;2.85;;;11.80;99.90;;;;;;5066883;28;20055;-51
2022/10/08 04:11:08;;;;;;;6.38;3.45;;;11.80;99.90;;;;;;5052060;28;20063;-51
2022/10/08 04:13:35;;;;;;;9.27;3.80;;;11.80;99.90;;;;;;5069346;28;20043;-50
2022/10/08 04:16:11;;;;;;;11.32;3.92;;;11.80;99.90;;;;;;5073347;28;20044;-52
2022/10/08 04:18:37;;;;;;;5.60;3.97;;;11.80;99.90;;;;;;5071352;28;20060;-51
2022/10/08 04:21:05;;;;;;;7.90;4.45;;;11.80;99.90;;;;;;5054597;28;20510;-52
2022/10/08 04:23:33;;;;;;;11.23;4.50;;;11.80;99.90;;;;;;5061556;28;20033;-53
2022/10/08 04:25:58;;;;;;;11.70;4.47;;;11.80;99.90;;;;;;5052634;28;20179;-52
2022/10/08 04:28:24;;;;;;;8.53;4.57;;;11.80;99.90;;;;;;5053721;28;20041;-51
2022/10/08 04:30:57;;;;;;;17.10;5.63;;;11.80;99.90;;;;;;5070889;28;20040;-51
2022/10/08 04:33:23;;;;;;;10.32;5.25;;;11.80;99.90;;;;;;5059052;28;20502;-51
2022/10/08 04:35:49;;;;;;;9.20;4.00;;;11.80;99.90;;;;;;5051566;28;20041;-53
2022/10/08 04:38:14;;;;;;;9.13;4.53;;;11.70;99.90;;;;;;5053873;28;20091;-52
2022/10/08 04:40:40;;;;;;;9.68;3.95;;;11.80;99.90;;;;;;5053615;28;20044;-52
2022/10/08 04:43:05;;;;;;;11.53;4.47;;;11.70;99.90;;;;;;5058487;28;20040;-52
2022/10/08 04:45:31;;;;;;;10.80;4.50;;;11.70;99.90;;;;;;5052696;28;20041;-53
2022/10/08 04:47:56;;;;;;;9.50;5.00;;;11.70;99.90;;;;;;5060025;28;20043;-52
2022/10/08 04:50:22;;;;;;;13.90;4.80;;;11.70;99.90;;;;;;5069977;28;20093;-51
2022/10/08 04:52:47;;;;;;;15.63;5.10;;;11.70;99.90;;;;;;5066034;28;20032;-51
2022/10/08 04:55:13;;;;;;;11.73;5.23;;;11.80;99.90;;;;;;5050524;28;20279;-54
2022/10/08 04:57:39;;;;;;;9.52;4.43;;;11.80;99.90;;;;;;5052852;28;20686;-50
2022/10/08 05:00:05;;;;;;;13.67;4.63;;;11.80;99.90;;;;;;5051137;28;20380;-52
2022/10/08 05:02:31;;;;;;;9.68;4.32;;;11.70;99.90;;;;;;5068429;28;20294;-52
2022/10/08 05:04:57;;;;;;;13.60;4.80;;;11.80;99.90;;;;;;5052504;28;20143;-51
2022/10/08 05:07:23;;;;;;;12.70;5.43;;;11.80;99.90;;;;;;5070724;28;20120;-52
2022/10/08 05:09:49;;;;;;;10.88;4.47;;;11.80;99.90;;;;;;5051741;28;20037;-51
2022/10/08 05:12:15;;;;;;;11.82;4.10;;;11.80;99.90;;;;;;5056660;28;20048;-52
2022/10/08 05:14:40;;;;;;;10.02;3.13;;;11.80;99.90;;;;;;5070348;28;20489;-53
2022/10/08 05:17:06;;;;;;;7.40;3.70;;;11.80;99.90;;;;;;5072084;28;20123;-52
2022/10/08 05:19:31;;;;;;;9.10;3.90;;;11.80;99.90;;;;;;5054718;28;20041;-52
2022/10/08 05:21:57;;;;;;;9.48;3.28;;;11.80;99.90;;;;;;5055457;28;20044;-56
2022/10/08 05:24:23;;;;;;;7.40;3.25;;;11.80;99.90;;;;;;5055051;28;20052;-53
2022/10/08 05:26:50;;;;;;;7.28;2.97;;;11.80;99.90;;;;;;5068211;28;20155;-51
2022/10/08 05:29:16;;;;;;;6.82;2.78;;;11.80;99.90;;;;;;5058342;28;20041;-52
2022/10/08 05:31:42;;;;;;;7.70;3.17;;;11.80;99.90;;;;;;5051993;28;20041;-52
2022/10/08 05:34:08;;;;;;;9.48;3.15;;;11.70;99.90;;;;;;5054591;28;20063;-54
2022/10/08 05:36:34;;;;;;;5.97;2.97;;;11.70;99.90;;;;;;5052255;28;20037;-51
2022/10/08 05:39:01;;;;;;;14.60;3.22;;;11.70;99.90;;;;;;5072793;28;20040;-51
2022/10/08 05:41:28;;;;;;;6.53;2.45;;;11.70;99.90;;;;;;5071473;28;20072;-54
2022/10/08 05:43:56;;;;;;;12.15;4.10;;;11.70;99.90;;;;;;5052999;28;20040;-52
2022/10/08 05:46:26;;;;;;;6.82;2.95;;;11.70;99.90;;;;;;5051123;28;20074;-52
2022/10/08 05:48:53;;;;;;;9.68;3.38;;;11.70;99.90;;;;;;5051115;28;20087;-53
2022/10/08 05:51:19;;;;;;;12.50;4.53;;;11.60;99.90;;;;;;5056257;28;20037;-52
2022/10/08 05:53:46;;;;;;;9.68;3.60;;;11.60;99.90;;;;;;5060259;28;20047;-56
2022/10/08 05:56:14;;;;;;;9.35;3.17;;;11.60;99.90;;;;;;5070950;28;20041;-52
2022/10/08 05:58:40;;;;;;;11.85;4.05;;;11.50;99.90;;;;;;5065504;28;20045;-52
2022/10/08 06:01:15;;;;;;;7.95;3.85;;;11.60;99.90;;;;;;5050863;28;20052;-52
2022/10/08 06:03:41;;;;;;;9.50;2.28;;;11.50;99.90;;;;;;5061994;28;20037;-52
2022/10/08 06:06:08;;;;;;;7.00;3.92;;;11.50;99.90;;;;;;5050742;28;20094;-54
2022/10/08 06:08:35;;;;;;;10.80;4.28;;;11.50;99.90;;;;;;5050935;28;20041;-53
2022/10/08 06:11:03;;;;;;;8.48;4.72;;;11.50;99.90;;;;;;5051206;28;20041;-52
2022/10/08 06:13:28;;;;;;;8.05;6.75;;;11.60;99.90;;;;;;5050430;28;20470;-52
2022/10/08 06:15:59;;;;;;;9.27;3.57;;;11.60;99.90;;;;;;5070045;28;20115;-52
2022/10/08 06:18:28;;;;;;;9.10;3.80;;;11.70;99.90;;;;;;5069959;28;20520;-50
2022/10/08 06:20:54;;;;;;;8.73;3.15;;;11.80;99.90;;;;;;5077647;28;20720;-50
2022/10/08 06:23:20;;;;;;;7.00;3.77;;;11.80;99.90;;;;;;5090647;28;20501;-51
2022/10/08 06:25:46;;;;;;;9.45;3.80;;;11.90;99.90;;;;;;5073993;28;20036;-53
2022/10/08 06:28:12;;;;;;;10.85;3.72;;;12.00;99.90;;;;;;5070170;28;20536;-52
2022/10/08 06:30:41;;;;;;;4.43;2.28;;;12.30;99.90;;;;;;5070776;28;20036;-54
2022/10/08 06:33:08;;;;;;;5.55;2.75;;;12.60;99.90;;;;;;5068735;28;20409;-53
2022/10/08 06:35:34;;;;;;;8.68;3.08;;;12.90;99.90;;;;;;5067084;28;20047;-55
2022/10/08 06:38:00;;;;;;;14.25;2.88;;;13.20;99.90;;;;;;5070603;28;20036;-55
2022/10/08 06:40:26;;;;;;;6.65;2.88;;;13.60;99.90;;;;;;5070797;28;20040;-55
2022/10/08 06:42:52;;;;;;;10.48;2.90;;;13.90;99.90;;;;;;5068836;28;20500;-56
2022/10/08 06:45:17;;;;;;;7.07;2.20;;;14.10;99.90;;;;;;5068386;28;20032;-56
2022/10/08 06:47:43;;;;;;;12.27;2.90;;;14.10;99.90;;;;;;5062029;28;20037;-54
2022/10/08 06:50:09;;;;;;;12.18;2.95;;;13.90;99.90;;;;;;5050255;28;20668;-55
2022/10/08 06:52:35;;;;;;;9.37;2.80;;;13.70;99.90;;;;;;5070569;28;20044;-54
2022/10/08 06:55:00;;;;;;;7.70;2.70;;;13.60;99.90;;;;;;5069264;28;20378;-54
2022/10/08 06:57:26;;;;;;;9.88;3.50;;;13.60;99.90;;;;;;5069939;28;20127;-57
2022/10/08 06:59:53;;;;;;;9.75;3.17;;;13.70;99.90;;;;;;5060939;28;20328;-54
2022/10/08 07:02:19;;;;;;;9.75;4.15;;;13.70;99.90;;;;;;5069806;28;20048;-56
2022/10/08 07:04:45;;;;;;;8.93;3.22;;;13.60;99.90;;;;;;5068130;28;20627;-54
2022/10/08 07:07:10;;;;;;;9.70;3.60;;;13.40;99.90;;;;;;5053349;28;20102;-54
2022/10/08 07:09:36;;;;;;;10.93;4.43;;;13.20;99.90;;;;;;5058332;28;20037;-55
2022/10/08 07:12:02;;;;;;;11.38;4.38;;;13.20;99.90;;;;;;5069674;28;20461;-50
2022/10/08 07:14:27;;;;;;;9.38;4.30;;;13.20;99.90;;;;;;5068505;28;20039;-52
2022/10/08 07:16:53;;;;;;;14.98;4.18;;;13.30;99.90;;;;;;5060369;28;20460;-53
2022/10/08 07:19:18;;;;;;;9.03;5.23;;;13.30;99.90;;;;;;5050621;28;20045;-53
2022/10/08 07:21:44;;;;;;;10.30;4.53;;;13.30;99.90;;;;;;5063259;28;20400;-52
2022/10/08 07:24:09;;;;;;;16.97;3.87;;;13.30;99.90;;;;;;5069613;28;20845;-50
2022/10/08 07:26:35;;;;;;;7.32;3.67;;;13.40;99.90;;;;;;5053894;28;20040;-52
2022/10/08 07:29:04;;;;;;;13.63;4.47;;;13.40;99.90;;;;;;5068719;28;20032;-53
2022/10/08 07:31:32;;;;;;;6.82;3.42;;;13.40;99.90;;;;;;5071777;28;20093;-52
2022/10/08 07:33:59;;;;;;;9.38;3.97;;;13.30;99.90;;;;;;5068866;28;20510;-55
2022/10/08 07:36:27;;;;;;;6.85;3.35;;;13.20;99.90;;;;;;5066753;28;20094;-50
2022/10/08 07:38:54;;;;;;;7.75;3.03;;;13.20;99.90;;;;;;5052787;28;20410;-53
2022/10/08 07:41:20;;;;;;;7.68;3.80;;;13.10;99.90;;;;;;5053756;28;20045;-52
2022/10/08 07:43:50;;;;;;;7.88;3.72;;;13.10;99.90;;;;;;5058295;28;20055;-51
2022/10/08 07:46:15;;;;;;;11.82;3.58;;;13.10;99.90;;;;;;5072898;28;20052;-53
2022/10/08 07:48:41;;;;;;;11.63;2.87;;;13.20;99.90;;;;;;5064422;28;20509;-51
2022/10/08 07:51:11;;;;;;;11.95;3.03;;;13.20;99.90;;;;;;5066683;28;20516;-54
2022/10/08 07:53:37;;;;;;;12.98;2.63;;;13.30;99.90;;;;;;5073338;28;20033;-55
2022/10/08 07:56:04;;;;;;;11.88;3.47;;;13.40;99.90;;;;;;5062721;28;20087;-53
2022/10/08 07:58:29;;;;;;;9.25;3.30;;;13.50;99.90;;;;;;5053363;28;20087;-51
2022/10/08 08:00:57;;;;;;;5.70;2.60;;;13.60;99.90;;;;;;5062420;28;20049;-54
2022/10/08 08:03:22;;;;;;;16.20;2.55;;;13.70;99.90;;;;;;5053215;28;20055;-50
2022/10/08 08:05:48;;;;;;;4.47;2.42;;;13.80;99.90;;;;;;5058930;28;20508;-54
2022/10/08 08:08:14;;;;;;;10.93;3.05;;;13.90;99.90;;;;;;5061746;28;20033;-51
2022/10/08 08:10:39;;;;;;;8.47;2.00;;;14.00;99.90;;;;;;5058202;28;20036;-51
2022/10/08 08:13:05;;;;;;;11.20;2.63;;;14.10;99.90;;;;;;5070678;28;20783;-54
2022/10/08 08:15:31;;;;;;;;;;;14.20;99.90;;;;;;5069479;28;20095;-51
2022/10/08 08:17:56;;;;;;;6.18;1.10;;;14.40;99.90;;;;;;5053687;28;20654;-55
2022/10/08 08:20:22;;;;;;;10.10;2.20;;;14.40;99.90;;;;;;5054746;28;20131;-54
2022/10/08 08:22:48;;;;;;;10.98;2.85;;;14.50;99.90;;;;;;5072916;28;20398;-54
2022/10/08 08:25:13;;;;;;;7.90;1.40;;;14.60;99.90;;;;;;5072370;28;20040;-54
2022/10/08 08:27:39;;;;;;;8.75;2.40;;;14.70;99.90;;;;;;5053660;28;20049;-54
2022/10/08 08:30:05;;;;;;;4.30;1.10;;;14.80;99.90;;;;;;5069079;28;20047;-53
2022/10/08 08:32:31;;;;;;;5.75;1.80;;;14.90;99.90;;;;;;5058493;28;20275;-54
2022/10/08 08:34:57;;;;;;;;;;;15.00;99.90;;;;;;5053014;28;20032;-53
2022/10/08 08:37:22;;;;;;;10.68;1.10;;;15.10;99.90;;;;;;5068220;28;19938;-55
2022/10/08 08:39:48;;;;;;;12.13;1.15;;;15.20;99.90;;;;;;5071593;28;20047;-54
2022/10/08 08:42:41;;;;;;;4.35;0.82;;;15.30;99.90;;;;;;5057105;28;20037;-54
2022/10/08 08:45:29;;;;;;;7.63;1.30;;;15.40;99.90;;;;;;5051203;28;20040;-54
2022/10/08 08:48:04;;;;;;;7.80;1.08;;;15.50;99.90;;;;;;5071207;28;20051;-53
2022/10/08 08:50:37;;;;;;;5.07;0.68;;;15.60;99.90;;;;;;5060806;28;20052;-52
2022/10/08 08:53:03;;;;;;;5.85;0.90;;;15.70;99.90;;;;;;5070320;28;20037;-54
2022/10/08 08:55:35;;;;;;;6.80;0.90;;;15.70;99.90;;;;;;5055409;28;20040;-55
2022/10/08 08:58:06;;;;;;;9.82;1.00;;;15.70;99.90;;;;;;5071295;28;20045;-51
2022/10/08 09:00:35;;;;;;;7.45;0.95;;;15.70;99.90;;;;;;5072295;28;20041;-53
2022/10/08 09:03:05;;;;;;;10.10;0.70;;;15.70;99.90;;;;;;5052585;28;20130;-54
2022/10/08 09:05:34;;;;;;;7.55;0.77;;;15.70;99.90;;;;;;5057711;28;20043;-54
2022/10/08 09:08:06;;;;;;;3.53;0.50;;;15.80;99.90;;;;;;5060840;28;20051;-55
2022/10/08 09:10:50;;;;;;;10.32;0.82;;;15.90;99.90;;;;;;5071386;28;20493;-51
2022/10/08 09:13:23;;;;;;;13.65;0.82;;;15.90;99.90;;;;;;5055944;28;20488;-54
2022/10/08 09:15:50;;;;;;;9.32;0.90;;;16.00;99.90;;;;;;5059969;28;20041;-53
2022/10/08 09:18:15;;;;;;;8.68;1.60;;;16.00;99.90;;;;;;5071806;28;20032;-54
2022/10/08 09:20:42;;;;;;;11.25;1.38;;;16.00;99.90;;;;;;5072057;28;20047;-53
2022/10/08 09:23:19;;;;;;;;;;;16.10;99.90;;;;;;5072047;28;20047;-51
2022/10/08 09:26:14;;;;;;;6.53;0.70;;;16.10;99.90;;;;;;5070534;28;19916;-52
2022/10/08 09:28:48;;;;;;;5.43;1.10;;;16.20;99.90;;;;;;4976651;28;20320;-53
2022/10/08 09:31:43;;;;;;;6.43;0.80;;;16.30;99.90;;;;;;4971227;28;20058;-54
2022/10/08 09:34:14;;;;;;;5.40;0.40;;;16.50;99.90;;;;;;4970404;28;20516;-53
2022/10/08 09:36:51;;;;;;;7.15;1.00;;;16.60;99.90;;;;;;4976928;28;20411;-54
2022/10/08 09:39:21;;;;;;;6.68;0.50;;;16.60;99.90;;;;;;4989596;28;20591;-53
2022/10/08 09:42:06;;;;;;;4.72;0.80;;;16.60;99.90;;;;;;4989653;28;20096;-51
2022/10/08 09:44:39;;;;;;;7.80;0.68;;;16.50;99.90;;;;;;4989265;28;20054;-51
2022/10/08 09:47:09;;;;;;;5.05;0.60;;;16.50;99.90;;;;;;4983296;28;20393;-54
2022/10/08 09:49:37;;;;;;;5.97;1.35;;;16.50;99.90;;;;;;4970170;28;20038;-54
2022/10/08 09:52:22;;;;;;;8.77;0.65;;;16.50;99.90;;;;;;4973664;28;20054;-52
2022/10/08 09:54:53;;;;;;;5.72;0.38;;;16.60;99.90;;;;;;4988954;28;20084;-52
2022/10/08 09:57:20;;;;;;;4.63;0.40;;;16.60;99.90;;;;;;4988306;28;20050;-52
2022/10/08 09:59:53;;;;;;;6.30;0.70;;;16.60;99.90;;;;;;4987410;28;20101;-52
2022/10/08 10:02:30;;;;;;;22.52;0.95;;;16.70;99.90;;;;;;4978782;28;20141;-51
2022/10/08 10:04:56;;;;;;;6.55;0.60;;;16.70;99.90;;;;;;4995870;28;20106;-52
2022/10/08 10:07:23;;;;;;;4.30;0.30;;;16.80;99.90;;;;;;5061407;28;20114;-50
2022/10/08 10:09:53;;;;;;;7.68;0.70;;;16.80;99.90;;;;;;5070698;28;20044;-54
2022/10/08 10:12:24;;;;;;;8.82;1.23;;;16.70;99.90;;;;;;5067721;28;20087;-51
2022/10/08 10:15:09;;;;;;;5.00;0.75;;;16.60;99.90;;;;;;5070575;28;20032;-50
2022/10/08 10:17:44;;;;;;;8.80;0.60;;;16.50;99.90;;;;;;5064245;28;20044;-52
2022/10/08 10:20:34;;;;;;;3.58;0.65;;;16.40;99.90;;;;;;5068052;28;20036;-51
2022/10/08 10:23:13;;;;;;;8.82;0.55;;;16.40;99.90;;;;;;5068376;28;20072;-53
2022/10/08 10:25:58;;;;;;;11.52;0.98;;;16.40;99.90;;;;;;5056237;28;20129;-51
2022/10/08 10:28:38;;;;;;;8.02;1.15;;;16.60;99.90;;;;;;5050983;28;20037;-55
2022/10/08 10:31:06;;;;;;;2.83;0.88;;;16.70;99.90;;;;;;5050670;28;20179;-52
2022/10/08 10:33:46;;;;;;;6.18;0.47;;;17.00;99.90;;;;;;5051405;28;20058;-52
2022/10/08 10:36:15;;;;;;;6.93;1.15;;;17.30;99.90;;;;;;5050438;28;20056;-51
2022/10/08 10:39:22;;;;;;;5.75;0.45;;;17.50;99.90;;;;;;5063707;28;20051;-54
2022/10/08 10:42:13;;;;;;;7.47;0.60;;;17.70;99.50;;;;;;5050414;28;20077;-55
2022/10/08 10:45:01;;;;;;;7.63;0.80;;;17.80;99.00;;;;;;5060444;28;20078;-56
2022/10/08 10:47:31;;;;;;;12.32;1.35;;;17.90;99.20;;;;;;5050334;28;20048;-55
2022/10/08 10:50:00;;;;;;;5.32;0.73;;;18.10;99.00;;;;;;5050493;28;20037;-53
2022/10/08 10:52:42;;;;;;;4.38;0.68;;;18.20;98.50;;;;;;5049864;28;20494;-52
2022/10/08 10:55:16;;;;;;;8.98;0.98;;;18.10;97.40;;;;;;5049880;28;20033;-54
2022/10/08 10:58:03;;;;;;;6.32;0.77;;;18.10;97.80;;;;;;5056870;28;20052;-54
2022/10/08 11:00:53;;;;;;;6.93;0.90;;;18.20;97.90;;;;;;5055121;28;20045;-54
2022/10/08 11:03:52;;;;;;;6.75;1.13;;;18.30;98.00;;;;;;5068002;28;20131;-54
2022/10/08 11:06:30;;;;;;;8.60;0.68;;;18.40;98.10;;;;;;5049150;28;20679;-54
2022/10/08 11:09:19;;;;;;;5.15;0.70;;;18.40;97.90;;;;;;5049120;28;20569;-55
2022/10/08 11:11:56;;;;;;;4.55;0.45;;;18.20;96.50;;;;;;5050287;28;20095;-54
2022/10/08 11:14:36;;;;;;;5.10;0.68;;;17.90;96.80;;;;;;5050549;28;20166;-53
2022/10/08 11:17:20;;;;;;;5.93;0.50;;;17.70;97.00;;;;;;5050086;28;20071;-51
2022/10/08 11:20:25;;;;;;;6.32;0.55;;;17.50;97.30;;;;;;5066300;28;20036;-51
2022/10/08 11:23:01;;;;;;;3.40;0.73;;;17.30;98.40;;;;;;5026798;28;20355;-53
2022/10/08 11:25:35;;;;;;;8.70;0.55;;;17.20;99.50;;;;;;5064053;28;20497;-56
2022/10/08 11:28:11;;;;;;;4.97;0.45;;;17.40;99.90;;;;;;5067564;28;20574;-53
2022/10/08 11:31:00;;;;;;;3.80;0.52;;;17.50;99.90;;;;;;5070164;28;20041;-55
2022/10/08 11:33:26;;;;;;;4.80;0.70;;;17.50;99.90;;;;;;5029180;28;20041;-54
2022/10/08 11:36:12;;;;;;;3.65;0.35;;;17.40;99.90;;;;;;5068945;28;20077;-55
2022/10/08 11:39:04;;;;;;;5.38;0.45;;;17.20;99.90;;;;;;5067743;28;20397;-54
2022/10/08 11:41:49;;;;;;;5.85;0.50;;;17.10;99.60;;;;;;5049455;28;20037;-57
2022/10/08 11:44:16;;;;;;;5.68;0.60;;;17.00;99.50;;;;;;5050601;28;20082;-56
2022/10/08 11:46:41;;;;;;;3.75;0.40;;;17.00;99.70;;;;;;5054518;28;20043;-57
2022/10/08 11:49:10;;;;;;;5.55;0.50;;;17.00;99.50;;;;;;5061789;28;20029;-56
2022/10/08 11:51:38;;;;;;;5.55;0.77;;;17.10;99.30;;;;;;5049718;28;20044;-56
2022/10/08 11:54:25;;;;;;;6.85;0.65;;;17.00;98.80;;;;;;5050087;28;20058;-57
2022/10/08 11:57:30;;;;;;;5.00;0.43;;;17.00;98.50;;;;;;5049644;28;20045;-57
2022/10/08 11:59:59;;;;;;;9.15;1.58;;;17.10;98.60;;;;;;5061935;28;20102;-56
2022/10/08 12:02:50;;;;;;;5.88;0.77;;;17.30;99.30;;;;;;5068228;28;20173;-56
2022/10/08 12:05:21;;;;;;;5.85;0.40;;;17.50;97.60;;;;;;5062094;28;20037;-56
2022/10/08 12:07:53;;;;;;;4.35;1.08;;;17.60;97.60;;;;;;5054911;28;20506;-55
2022/10/08 12:10:18;;;;;;;5.70;0.55;;;17.80;97.50;;;;;;5063845;28;20033;-54
2022/10/08 12:12:50;;;;;;;2.65;0.38;;;17.70;97.20;;;;;;5068912;28;20037;-54
2022/10/08 12:15:28;;;;;;;5.65;0.40;;;17.60;96.30;;;;;;5065323;28;20512;-52
2022/10/08 12:18:09;;;;;;;3.78;0.30;;;17.50;96.40;;;;;;5072798;28;20513;-56
2022/10/08 12:20:36;;;;;;;3.13;0.38;;;17.50;96.20;;;;;;5056781;28;20124;-52
2022/10/08 12:23:20;;;;;;;5.68;0.73;;;17.40;95.90;;;;;;5053604;28;20037;-58
2022/10/08 12:25:47;;;;;;;4.97;0.40;;;17.30;95.90;;;;;;5064766;28;20036;-54
2022/10/08 12:28:19;;;;;;;6.28;0.50;;;17.20;96.20;;;;;;5072706;28;20461;-57
2022/10/08 12:30:55;;;;;;;2.58;0.50;;;17.10;95.70;;;;;;5039525;28;20037;-54
2022/10/08 12:33:21;;;;;;;;;;;17.10;96.10;;;;;;5051880;28;20505;-55
2022/10/08 12:35:55;;;;;;;4.00;0.55;;;17.10;96.30;;;;;;5053279;28;20305;-54
2022/10/08 12:38:44;;;;;;;8.32;0.65;;;17.20;96.00;;;;;;5052758;28;20047;-56
2022/10/08 12:41:31;;;;;;;3.38;0.40;;;17.20;94.90;;;;;;5070240;28;20037;-52
2022/10/08 12:44:26;;;;;;;2.75;0.30;;;17.20;94.90;;;;;;5070997;28;20040;-52
2022/10/08 12:47:23;;;;;;;2.63;0.20;;;17.20;94.70;;;;;;5052651;28;20147;-53
2022/10/08 12:50:01;;;;;;;4.28;0.30;;;17.20;94.50;;;;;;5056548;28;20036;-52
2022/10/08 12:52:33;;;;;;;2.55;0.40;;;17.30;94.60;;;;;;5070021;28;20040;-50
2022/10/08 12:55:00;;;;;;;2.95;0.30;;;17.50;94.80;;;;;;5064099;28;20196;-50
2022/10/08 12:57:29;;;;;;;2.95;0.30;;;17.60;94.40;;;;;;5062502;28;20452;-50
2022/10/08 12:59:56;;;;;;;5.40;0.30;;;17.70;93.70;;;;;;5058271;28;20068;-51
2022/10/08 13:02:40;;;;;;;3.70;0.40;;;17.80;93.60;;;;;;5072401;28;20083;-51
2022/10/08 13:05:23;;;;;;;2.97;0.20;;;17.90;92.60;;;;;;5065427;28;20132;-50
2022/10/08 13:07:49;;;;;;;3.60;0.50;;;17.90;91.80;;;;;;5052454;28;20052;-52
2022/10/08 13:10:19;;;;;;;4.70;0.60;;;18.00;92.60;;;;;;5061367;28;20033;-54